createdAt,value
2022-10-23T00:01:27.603Z,22.10
2022-10-23T00:03:59.354Z,20.17
2022-10-23T00:06:27.332Z,25.73
2022-10-23T00:08:54.542Z,25.75
2022-10-23T00:11:24.652Z,22.98
2022-10-23T00:13:54.736Z,22.10
2022-10-23T00:16:21.771Z,17.87
2022-10-23T00:18:48.885Z,23.70
2022-10-23T00:21:17.554Z,24.38
2022-10-23T00:23:45.211Z,19.75
2022-10-23T00:26:15.753Z,23.63
2022-10-23T00:28:45.116Z,22.50
2022-10-23T00:31:12.890Z,21.15
2022-10-23T00:33:41.914Z,25.10
2022-10-23T00:36:11.131Z,20.17
2022-10-23T00:38:38.766Z,19.58
2022-10-23T00:41:07.659Z,23.52
2022-10-23T00:43:35.518Z,19.23
2022-10-23T00:46:02.460Z,24.65
2022-10-23T00:48:29.945Z,24.92
2022-10-23T00:50:57.168Z,24.58
2022-10-23T00:53:24.786Z,20.92
2022-10-23T00:55:54.952Z,22.23
2022-10-23T00:58:22.123Z,16.98
2022-10-23T01:00:52.297Z,19.02
2022-10-23T01:03:23.192Z,20.35
2022-10-23T01:06:14.566Z,20.02
2022-10-23T01:08:47.064Z,24.60
2022-10-23T01:11:30.059Z,21.77
2022-10-23T01:16:47.495Z,24.20
2022-10-23T01:19:36.254Z,23.27
2022-10-23T01:22:22.176Z,21.35
2022-10-23T01:25:03.214Z,24.27
2022-10-23T01:27:39.696Z,21.77
2022-10-23T01:30:08.794Z,19.50
2022-10-23T01:32:43.836Z,22.80
2022-10-23T01:35:23.019Z,20.67
2022-10-23T01:38:06.151Z,16.80
2022-10-23T01:40:51.951Z,23.30
2022-10-23T01:43:25.879Z,20.63
2022-10-23T01:45:57.766Z,21.98
2022-10-23T01:48:29.789Z,16.88
2022-10-23T01:51:01.464Z,17.58
2022-10-23T01:53:31.731Z,19.33
2022-10-23T01:56:01.109Z,18.17
2022-10-23T01:58:30.180Z,22.35
2022-10-23T02:01:01.459Z,17.73
2022-10-23T02:03:33.224Z,20.13
2022-10-23T02:06:00.299Z,21.75
2022-10-23T02:08:27.813Z,19.55
2022-10-23T02:11:15.067Z,19.17
2022-10-23T02:14:00.123Z,22.50
2022-10-23T02:16:36.143Z,18.43
2022-10-23T02:19:24.659Z,22.45
2022-10-23T02:22:00.879Z,18.27
2022-10-23T02:24:34.775Z,23.77
2022-10-23T02:27:10.027Z,21.15
2022-10-23T02:29:46.024Z,20.98
2022-10-23T02:32:14.563Z,21.40
2022-10-23T02:34:41.728Z,21.42
2022-10-23T02:37:10.704Z,18.27
2022-10-23T02:39:37.660Z,19.42
2022-10-23T02:42:32.636Z,21.90
2022-10-23T02:45:11.788Z,18.35
2022-10-23T02:47:54.713Z,17.05
2022-10-23T02:50:30.568Z,22.02
2022-10-23T02:53:20.572Z,17.90
2022-10-23T02:56:36.609Z,22.02
2022-10-23T02:59:21.710Z,24.73
2022-10-23T03:01:58.363Z,17.70
2022-10-23T03:04:28.033Z,29.40
2022-10-23T03:06:55.611Z,21.40
2022-10-23T03:09:23.055Z,16.55
2022-10-23T03:11:49.947Z,17.95
2022-10-23T03:14:17.536Z,17.58
2022-10-23T03:16:45.094Z,21.58
2022-10-23T03:21:40.591Z,17.80
2022-10-23T03:24:08.711Z,18.48
2022-10-23T03:26:40.865Z,15.88
2022-10-23T03:29:07.751Z,21.13
2022-10-23T03:31:40.783Z,21.40
2022-10-23T03:34:11.128Z,18.02
2022-10-23T03:36:40.481Z,17.47
2022-10-23T03:39:08.658Z,18.35
2022-10-23T03:41:35.450Z,19.92
2022-10-23T03:44:02.494Z,18.48
2022-10-23T03:46:29.627Z,18.15
2022-10-23T03:48:59.578Z,18.08
2022-10-23T03:51:27.174Z,19.25
2022-10-23T03:53:54.206Z,17.40
2022-10-23T03:56:21.813Z,25.93
2022-10-23T03:58:49.003Z,19.85
2022-10-23T04:01:15.904Z,18.63
2022-10-23T04:03:43.000Z,21.35
2022-10-23T04:06:09.914Z,19.95
2022-10-23T04:08:37.660Z,17.48
2022-10-23T04:11:11.097Z,21.17
2022-10-23T04:13:44.937Z,25.92
2022-10-23T04:16:11.964Z,22.45
2022-10-23T04:18:41.553Z,19.60
2022-10-23T04:21:10.614Z,19.07
2022-10-23T04:23:38.444Z,21.98
2022-10-23T04:26:09.275Z,22.17
2022-10-23T04:28:36.128Z,22.67
2022-10-23T04:31:03.010Z,15.37
2022-10-23T04:33:29.865Z,28.75
2022-10-23T04:35:56.751Z,22.92
2022-10-23T04:38:23.739Z,22.42
2022-10-23T04:40:50.719Z,20.38
2022-10-23T04:43:21.306Z,18.35
2022-10-23T04:45:49.404Z,19.02
2022-10-23T04:48:16.268Z,25.63
2022-10-23T04:51:04.559Z,21.83
2022-10-23T04:54:04.092Z,17.00
2022-10-23T04:57:00.118Z,16.33
2022-10-23T04:59:33.186Z,15.53
2022-10-23T05:02:00.666Z,21.67
2022-10-23T05:04:28.755Z,16.57
2022-10-23T05:07:14.013Z,15.77
2022-10-23T05:09:48.644Z,13.40
2022-10-23T05:12:36.263Z,16.80
2022-10-23T05:15:04.199Z,16.38
2022-10-23T05:17:37.317Z,21.33
2022-10-23T05:20:09.567Z,22.17
2022-10-23T05:22:39.983Z,20.27
2022-10-23T05:25:10.938Z,18.17
2022-10-23T05:27:39.091Z,9.45
2022-10-23T05:30:10.374Z,16.20
2022-10-23T05:32:38.536Z,14.82
2022-10-23T05:35:16.991Z,14.60
2022-10-23T05:37:48.833Z,17.15
2022-10-23T05:40:22.010Z,14.60
2022-10-23T05:42:52.581Z,16.98
2022-10-23T05:45:26.660Z,17.73
2022-10-23T05:48:29.816Z,18.40
2022-10-23T05:51:08.478Z,15.38
2022-10-23T05:53:43.614Z,13.00
2022-10-23T05:56:29.171Z,13.57
2022-10-23T05:59:02.095Z,15.15
2022-10-23T06:01:47.196Z,16.52
2022-10-23T06:04:18.927Z,12.73
2022-10-23T06:07:15.186Z,16.33
2022-10-23T06:09:44.399Z,18.02
2022-10-23T06:12:11.368Z,17.88
2022-10-23T06:14:39.134Z,23.67
2022-10-23T06:17:06.301Z,14.45
2022-10-23T06:19:39.739Z,18.63
2022-10-23T06:22:07.451Z,15.32
2022-10-23T06:24:46.015Z,16.05
2022-10-23T06:27:15.883Z,15.00
2022-10-23T06:29:44.726Z,15.85
2022-10-23T06:32:11.673Z,15.38
2022-10-23T06:34:39.580Z,14.15
2022-10-23T06:37:08.365Z,14.70
2022-10-23T06:39:42.308Z,13.23
2022-10-23T06:42:13.849Z,14.25
2022-10-23T06:44:56.621Z,17.00
2022-10-23T06:47:52.752Z,17.63
2022-10-23T06:50:32.042Z,16.63
2022-10-23T06:53:05.376Z,18.30
2022-10-23T06:55:34.674Z,17.80
2022-10-23T06:58:02.713Z,14.88
2022-10-23T07:00:29.749Z,14.63
2022-10-23T07:02:57.001Z,13.40
2022-10-23T07:05:23.914Z,18.27
2022-10-23T07:07:50.804Z,26.98
2022-10-23T07:10:24.848Z,15.93
2022-10-23T07:13:00.703Z,19.05
2022-10-23T07:15:41.206Z,18.40
2022-10-23T07:18:14.618Z,15.00
2022-10-23T07:21:00.091Z,14.73
2022-10-23T07:23:28.559Z,18.65
2022-10-23T07:25:55.602Z,15.10
2022-10-23T07:28:23.506Z,13.48
2022-10-23T07:31:00.543Z,15.18
2022-10-23T07:33:44.408Z,16.40
2022-10-23T07:36:17.622Z,17.98
2022-10-23T07:38:44.852Z,15.40
2022-10-23T07:41:12.535Z,15.60
2022-10-23T07:43:39.843Z,16.45
2022-10-23T07:46:08.348Z,11.98
2022-10-23T07:48:39.682Z,12.07
2022-10-23T07:51:13.830Z,16.87
2022-10-23T07:53:55.332Z,13.80
2022-10-23T07:56:51.191Z,12.45
2022-10-23T07:59:23.920Z,15.10
2022-10-23T08:01:56.453Z,14.18
2022-10-23T08:04:28.877Z,15.90
2022-10-23T08:07:02.620Z,13.95
2022-10-23T08:09:38.015Z,11.70
2022-10-23T08:12:05.666Z,14.63
2022-10-23T08:14:32.561Z,14.52
2022-10-23T08:16:59.492Z,14.30
2022-10-23T08:19:55.586Z,10.73
2022-10-23T08:22:24.010Z,14.13
2022-10-23T08:24:51.625Z,14.07
2022-10-23T08:27:18.502Z,17.60
2022-10-23T08:29:47.210Z,13.30
2022-10-23T08:32:14.145Z,12.00
2022-10-23T08:34:58.974Z,10.45
2022-10-23T08:37:28.430Z,10.77
2022-10-23T08:39:56.061Z,13.68
2022-10-23T08:43:10.711Z,9.48
2022-10-23T08:45:49.641Z,11.55
2022-10-23T08:48:43.255Z,11.32
2022-10-23T08:51:41.482Z,11.52
2022-10-23T08:54:49.281Z,14.20
2022-10-23T08:57:18.527Z,10.85
2022-10-23T08:59:54.189Z,14.20
2022-10-23T09:02:40.578Z,10.73
2022-10-23T09:05:19.419Z,12.65
2022-10-23T09:08:22.056Z,11.10
2022-10-23T09:11:10.086Z,12.10
2022-10-23T09:14:01.977Z,12.80
2022-10-23T09:16:46.724Z,13.10
2022-10-23T09:19:19.336Z,8.60
2022-10-23T09:21:49.902Z,9.48
2022-10-23T09:24:19.646Z,10.98
2022-10-23T09:26:49.584Z,12.85
2022-10-23T09:29:36.766Z,11.82
2022-10-23T09:32:06.744Z,10.35
2022-10-23T09:34:34.941Z,11.25
2022-10-23T09:37:23.790Z,10.57
2022-10-23T09:40:14.280Z,11.07
2022-10-23T09:42:58.731Z,10.45
2022-10-23T09:45:32.260Z,12.05
2022-10-23T09:48:19.089Z,15.13
2022-10-23T09:50:57.650Z,12.68
2022-10-23T09:53:32.635Z,10.68
2022-10-23T09:56:03.646Z,13.25
2022-10-23T09:58:53.230Z,9.02
2022-10-23T10:01:30.518Z,8.82
2022-10-23T10:04:13.271Z,11.00
2022-10-23T10:09:16.933Z,9.77
2022-10-23T10:11:49.706Z,9.13
2022-10-23T10:14:28.512Z,9.15
2022-10-23T10:17:30.490Z,15.10
2022-10-23T10:20:18.829Z,7.63
2022-10-23T10:22:51.428Z,6.03
2022-10-23T10:25:39.734Z,10.80
2022-10-23T10:28:24.776Z,10.87
2022-10-23T10:31:27.547Z,6.38
2022-10-23T10:33:57.333Z,7.80
2022-10-23T10:36:45.330Z,6.00
2022-10-23T10:39:25.126Z,9.68
2022-10-23T10:41:51.972Z,10.70
2022-10-23T10:44:33.933Z,9.68
2022-10-23T10:47:26.220Z,8.52
2022-10-23T10:50:08.103Z,10.10
2022-10-23T10:53:08.620Z,9.27
2022-10-23T10:55:41.348Z,7.20
2022-10-23T10:58:11.118Z,10.55
2022-10-23T11:00:38.036Z,8.10
2022-10-23T11:03:20.308Z,9.80
2022-10-23T11:05:50.539Z,8.48
2022-10-23T11:08:24.858Z,12.48
2022-10-23T11:10:57.118Z,10.68
2022-10-23T11:13:40.428Z,9.40
2022-10-23T11:16:21.251Z,9.63
2022-10-23T11:19:11.364Z,6.18
2022-10-23T11:22:06.737Z,8.37
2022-10-23T11:24:38.915Z,7.20
2022-10-23T11:27:20.858Z,8.27
2022-10-23T11:30:08.945Z,9.67
2022-10-23T11:33:03.769Z,8.60
2022-10-23T11:35:30.783Z,7.80
2022-10-23T11:38:09.062Z,11.50
2022-10-23T11:40:36.025Z,5.40
2022-10-23T11:43:02.935Z,8.07
2022-10-23T11:45:40.180Z,10.30
2022-10-23T11:48:22.739Z,7.40
2022-10-23T11:50:53.560Z,10.63
2022-10-23T11:53:38.732Z,7.65
2022-10-23T11:56:11.476Z,12.23
2022-10-23T11:58:50.482Z,8.65
2022-10-23T12:01:18.174Z,13.95
2022-10-23T12:04:18.549Z,9.80
2022-10-23T12:06:55.480Z,6.28
2022-10-23T12:09:24.279Z,8.00
2022-10-23T12:12:09.357Z,7.88
2022-10-23T12:14:40.993Z,12.75
2022-10-23T12:17:23.951Z,8.55
2022-10-23T12:19:55.417Z,10.65
2022-10-23T12:22:28.105Z,16.23
2022-10-23T12:25:04.072Z,9.43
2022-10-23T12:27:43.842Z,9.55
2022-10-23T12:30:20.160Z,6.68
2022-10-23T12:33:19.130Z,8.13
2022-10-23T12:35:48.763Z,13.85
2022-10-23T12:38:20.231Z,11.75
2022-10-23T12:40:53.318Z,9.77
2022-10-23T12:43:31.256Z,6.50
2022-10-23T12:46:07.710Z,6.10
2022-10-23T12:48:34.854Z,10.10
2022-10-23T12:51:01.719Z,7.72
2022-10-23T12:53:28.596Z,7.65
2022-10-23T12:58:34.063Z,6.43
2022-10-23T13:01:06.227Z,27.83
2022-10-23T13:03:35.142Z,10.63
2022-10-23T13:06:03.609Z,8.63
2022-10-23T13:08:45.327Z,9.95
2022-10-23T13:11:28.830Z,15.52
2022-10-23T13:13:59.234Z,12.85
2022-10-23T13:16:27.018Z,8.63
2022-10-23T13:18:54.392Z,9.43
2022-10-23T13:21:28.659Z,14.60
2022-10-23T13:23:56.228Z,9.40
2022-10-23T13:26:28.895Z,11.80
2022-10-23T13:28:56.029Z,9.70
2022-10-23T13:31:35.113Z,7.32
2022-10-23T13:34:01.894Z,8.77
2022-10-23T13:36:35.851Z,13.20
2022-10-23T13:39:10.009Z,6.60
2022-10-23T13:41:55.039Z,10.30
2022-10-23T13:44:23.904Z,59.88
2022-10-23T13:46:52.169Z,35.58
2022-10-23T13:49:19.964Z,36.97
2022-10-23T13:51:56.237Z,4.30
2022-10-23T13:54:25.759Z,8.93
2022-10-23T13:56:54.049Z,10.48
2022-10-23T13:59:21.095Z,19.42
2022-10-23T14:01:50.309Z,7.47
2022-10-23T14:04:18.735Z,4.73
2022-10-23T14:06:45.782Z,9.85
2022-10-23T14:09:15.705Z,9.15
2022-10-23T14:11:43.150Z,5.37
2022-10-23T14:14:10.153Z,6.53
2022-10-23T14:16:37.608Z,3.53
2022-10-23T14:19:04.622Z,8.93
2022-10-23T14:21:31.523Z,9.82
2022-10-23T14:23:58.362Z,10.20
2022-10-23T14:26:28.910Z,6.07
2022-10-23T14:28:58.358Z,4.20
2022-10-23T14:31:28.776Z,6.33
2022-10-23T14:33:58.579Z,7.78
2022-10-23T14:36:30.882Z,7.18
2022-10-23T14:39:05.602Z,6.50
2022-10-23T14:41:32.520Z,8.43
2022-10-23T14:43:59.334Z,3.80
2022-10-23T14:46:26.315Z,9.88
2022-10-23T14:48:56.417Z,10.70
2022-10-23T14:51:32.788Z,3.72
2022-10-23T14:54:04.764Z,7.72
2022-10-23T14:56:33.980Z,7.72
2022-10-23T14:59:03.890Z,8.95
2022-10-23T15:01:36.858Z,10.90
2022-10-23T15:04:04.465Z,10.15
2022-10-23T15:06:31.390Z,5.65
2022-10-23T15:08:58.407Z,5.55
2022-10-23T15:11:26.413Z,4.57
2022-10-23T15:13:54.753Z,5.25
2022-10-23T15:16:23.487Z,5.30
2022-10-23T15:18:50.693Z,5.78
2022-10-23T15:21:18.348Z,7.97
2022-10-23T15:23:46.506Z,5.28
2022-10-23T15:26:20.170Z,10.25
2022-10-23T15:28:52.165Z,7.43
2022-10-23T15:31:43.139Z,8.30
2022-10-23T15:34:12.667Z,7.93
2022-10-23T15:36:40.132Z,6.72
2022-10-23T15:39:09.332Z,7.63
2022-10-23T15:41:38.185Z,6.53
2022-10-23T15:44:06.585Z,7.97
2022-10-23T15:46:33.978Z,7.53
2022-10-23T15:49:01.156Z,9.20
2022-10-23T15:51:28.202Z,4.57
2022-10-23T15:53:56.961Z,5.03
2022-10-23T15:56:24.859Z,7.43
2022-10-23T15:58:52.271Z,6.40
2022-10-23T16:01:19.608Z,7.50
2022-10-23T16:03:46.893Z,7.32
2022-10-23T16:06:15.331Z,6.70
2022-10-23T16:08:43.967Z,5.80
2022-10-23T16:11:20.403Z,4.72
2022-10-23T16:13:47.793Z,5.50
2022-10-23T16:16:15.656Z,8.75
2022-10-23T16:18:43.806Z,4.43
2022-10-23T16:21:21.057Z,6.82
2022-10-23T16:23:48.574Z,5.20
2022-10-23T16:26:15.593Z,9.32
2022-10-23T16:28:43.961Z,13.05
2022-10-23T16:31:19.938Z,6.25
2022-10-23T16:33:48.483Z,5.30
2022-10-23T16:36:15.983Z,4.30
2022-10-23T16:39:03.618Z,5.53
2022-10-23T16:41:48.996Z,5.97
2022-10-23T16:44:18.701Z,5.88
2022-10-23T16:46:57.329Z,8.60
2022-10-23T16:49:24.229Z,6.88
2022-10-23T16:51:51.038Z,5.38
2022-10-23T16:54:17.954Z,5.72
2022-10-23T16:56:45.281Z,5.82
2022-10-23T16:59:12.204Z,6.70
2022-10-23T17:01:39.460Z,5.63
2022-10-23T17:04:08.255Z,8.02
2022-10-23T17:06:35.820Z,8.50
2022-10-23T17:09:04.168Z,8.20
2022-10-23T17:11:34.417Z,9.00
2022-10-23T17:14:07.825Z,6.22
2022-10-23T17:16:42.321Z,7.25
2022-10-23T17:19:20.736Z,10.00
2022-10-23T17:21:55.219Z,6.38
2022-10-23T17:24:23.081Z,8.13
2022-10-23T17:26:50.428Z,5.72
2022-10-23T17:29:18.350Z,8.30
2022-10-23T17:31:50.122Z,15.98
2022-10-23T17:34:20.233Z,8.57
2022-10-23T17:36:50.351Z,7.18
2022-10-23T17:39:20.006Z,10.60
2022-10-23T17:41:47.426Z,8.57
2022-10-23T17:44:14.490Z,4.87
2022-10-23T17:46:41.409Z,6.45
2022-10-23T17:49:08.395Z,6.63
2022-10-23T17:51:35.907Z,6.97
2022-10-23T17:54:05.787Z,7.82
2022-10-23T17:56:34.811Z,5.07
2022-10-23T17:59:07.958Z,7.27
2022-10-23T18:01:35.591Z,15.25
2022-10-23T18:04:05.246Z,15.38
2022-10-23T18:06:36.307Z,7.38
2022-10-23T18:09:05.275Z,8.85
2022-10-23T18:11:37.582Z,17.42
2022-10-23T18:14:06.041Z,25.70
2022-10-23T18:16:34.030Z,20.50
2022-10-23T18:19:01.869Z,5.72
2022-10-23T18:21:29.237Z,10.48
2022-10-23T18:23:58.179Z,16.88
2022-10-23T18:26:27.965Z,18.25
2022-10-23T18:28:57.288Z,25.73
2022-10-23T18:31:27.006Z,5.30
2022-10-23T18:34:03.203Z,11.47
2022-10-23T18:36:33.348Z,16.58
2022-10-23T18:39:00.360Z,18.73
2022-10-23T18:41:31.808Z,9.27
2022-10-23T18:43:58.712Z,7.85
2022-10-23T18:46:25.587Z,11.10
2022-10-23T18:48:52.434Z,12.43
2022-10-23T18:51:25.009Z,6.80
2022-10-23T18:53:52.503Z,10.98
2022-10-23T18:56:23.627Z,10.88
2022-10-23T18:58:55.830Z,13.93
2022-10-23T19:01:23.869Z,7.93
2022-10-23T19:03:51.835Z,36.30
2022-10-23T19:06:20.284Z,38.40
2022-10-23T19:08:47.855Z,43.17
2022-10-23T19:11:16.884Z,47.10
2022-10-23T19:13:44.079Z,34.30
2022-10-23T19:16:14.949Z,32.70
2022-10-23T19:18:46.718Z,29.37
2022-10-23T19:21:14.276Z,28.77
2022-10-23T19:23:43.162Z,8.52
2022-10-23T19:26:13.282Z,11.65
2022-10-23T19:28:44.308Z,21.88
2022-10-23T19:31:12.248Z,15.45
2022-10-23T19:33:39.236Z,6.70
2022-10-23T19:36:11.218Z,4.00
2022-10-23T19:38:41.498Z,19.73
2022-10-23T19:41:08.782Z,22.42
2022-10-23T19:43:37.778Z,13.97
2022-10-23T19:46:09.358Z,16.98
2022-10-23T19:48:42.463Z,6.03
2022-10-23T19:51:09.608Z,7.75
2022-10-23T19:53:36.712Z,11.52
2022-10-23T19:56:05.729Z,7.18
2022-10-23T19:58:33.245Z,4.63
2022-10-23T20:01:07.426Z,8.98
2022-10-23T20:03:34.479Z,7.07
2022-10-23T20:06:01.373Z,4.88
2022-10-23T20:08:32.609Z,5.72
2022-10-23T20:11:04.605Z,6.05
2022-10-23T20:13:31.827Z,7.32
2022-10-23T20:15:59.021Z,3.33
2022-10-23T20:18:26.172Z,3.03
2022-10-23T20:20:54.022Z,6.50
2022-10-23T20:23:20.972Z,3.97
2022-10-23T20:25:47.894Z,4.68
2022-10-23T20:28:15.338Z,4.35
2022-10-23T20:30:42.674Z,1.77
2022-10-23T20:33:09.561Z,5.10
2022-10-23T20:35:41.255Z,3.25
2022-10-23T20:38:09.163Z,6.32
2022-10-23T20:40:36.051Z,2.60
2022-10-23T20:43:02.958Z,2.25
2022-10-23T20:45:29.919Z,5.18
2022-10-23T20:47:56.953Z,1.73
2022-10-23T20:50:26.540Z,2.20
2022-10-23T20:52:53.389Z,2.70
2022-10-23T20:55:20.259Z,2.90
2022-10-23T20:57:47.265Z,4.47
2022-10-23T21:00:15.290Z,1.95
2022-10-23T21:02:43.265Z,3.50
2022-10-23T21:05:12.582Z,2.55
2022-10-23T21:07:39.386Z,2.70
2022-10-23T21:10:06.800Z,0.70
2022-10-23T21:12:33.691Z,5.47
2022-10-23T21:15:00.573Z,1.92
2022-10-23T21:17:28.436Z,4.07
2022-10-23T21:19:55.367Z,2.55
2022-10-23T21:22:22.183Z,4.00
2022-10-23T21:24:49.070Z,4.20
2022-10-23T21:27:15.896Z,2.77
2022-10-23T21:29:43.534Z,4.47
2022-10-23T21:32:10.335Z,1.70
2022-10-23T21:34:37.243Z,2.03
2022-10-23T21:37:12.942Z,4.28
2022-10-23T21:39:40.876Z,3.90
2022-10-23T21:42:07.955Z,2.45
2022-10-23T21:44:34.883Z,2.40
2022-10-23T21:47:02.036Z,3.83
2022-10-23T21:49:28.974Z,4.32
2022-10-23T21:51:55.860Z,5.00
2022-10-23T21:54:23.014Z,5.97
2022-10-23T21:56:53.577Z,5.13
2022-10-23T21:59:22.804Z,4.13
2022-10-23T22:01:50.244Z,7.18
2022-10-23T22:04:19.108Z,6.95
2022-10-23T22:06:47.819Z,3.95
2022-10-23T22:09:18.863Z,2.83
2022-10-23T22:11:46.089Z,4.78
2022-10-23T22:14:12.904Z,6.37
2022-10-23T22:16:39.776Z,6.22
2022-10-23T22:19:06.584Z,2.88
2022-10-23T22:21:33.480Z,4.30
2022-10-23T22:24:01.107Z,5.72
2022-10-23T22:26:31.711Z,3.30
2022-10-23T22:29:01.335Z,4.30
2022-10-23T22:31:30.807Z,4.60
2022-10-23T22:33:58.582Z,6.72
2022-10-23T22:36:26.141Z,4.88
2022-10-23T22:38:54.268Z,5.68
2022-10-23T22:41:21.146Z,6.13
2022-10-23T22:43:48.003Z,4.63
2022-10-23T22:46:18.675Z,5.80
2022-10-23T22:48:46.039Z,6.15
2022-10-23T22:51:14.770Z,4.00
2022-10-23T22:53:42.391Z,3.45
2022-10-23T22:56:12.771Z,5.35
2022-10-23T22:58:39.861Z,3.45
2022-10-23T23:01:14.668Z,7.53
2022-10-23T23:03:42.195Z,4.80
2022-10-23T23:06:10.304Z,8.07
2022-10-23T23:08:38.828Z,6.00
2022-10-23T23:11:07.894Z,7.35
2022-10-23T23:13:35.334Z,8.65
2022-10-23T23:16:02.983Z,6.45
2022-10-23T23:18:30.619Z,7.00
2022-10-23T23:21:05.152Z,5.55
2022-10-23T23:23:32.314Z,3.65
2022-10-23T23:25:59.146Z,4.90
2022-10-23T23:28:26.089Z,6.00
2022-10-23T23:31:11.198Z,6.60
2022-10-23T23:33:38.622Z,8.27
2022-10-23T23:36:10.485Z,9.00
2022-10-23T23:38:38.278Z,10.20
2022-10-23T23:41:06.376Z,7.13
2022-10-23T23:43:33.322Z,6.43
2022-10-23T23:46:00.199Z,8.93
2022-10-23T23:48:27.068Z,9.30
2022-10-23T23:50:53.996Z,10.00
2022-10-23T23:53:20.845Z,6.85
2022-10-23T23:55:47.849Z,6.57
2022-10-23T23:58:14.843Z,8.52
